Saturday, November 18, 2017, 1:12 AM EST
Back to Local

KMLT, Millinocket Municipal Airport

Location: Millinocket, ME, United States Lat: 45.65
Local Time: 1:12 AM EST ( 6:12 GMT) Lon: -68.7
Time Zone: US/Eastern Elev: 406 ft

Show me the last for .
Show Decoded

2017-11-18 00:53 METAR KMLT 180553Z AUTO 29007G16KT 10SM CLR M04/M09 A2981 RMK AO2 SLP103
                 T10441089 11033 21044 50002 TSNO =
2017-11-17 23:53 METAR KMLT 180453Z AUTO 31016G21KT 10SM CLR M04/M09 A2981 RMK AO2 PK WND
                 31027/0405 SLP106 T10441089 400391044 TSNO =
2017-11-17 22:53 METAR KMLT 180353Z AUTO 31015G20KT 10SM CLR M04/M08 A2981 RMK AO2 PK WND
                 31026/0334 SLP104 T10391083 TSNO =
2017-11-17 21:53 METAR KMLT 180253Z AUTO 31014G27KT 10SM CLR M04/M08 A2980 RMK AO2 PK WND
                 31030/0239 SLP101 T10391083 50003 TSNO =
2017-11-17 20:53 METAR KMLT 180153Z AUTO 30019G28KT 10SM CLR M03/M08 A2981 RMK AO2 PK WND
                 30034/0143 SLP104 T10331083 TSNO =
2017-11-17 19:53 METAR KMLT 180053Z AUTO 31015G26KT 10SM FEW026 M03/M08 A2980 RMK AO2 PK WND
                 31035/0043 SLP103 T10331078 TSNO =
2017-11-17 18:53 METAR KMLT 172353Z AUTO 32013G31KT 270V010 10SM CLR M03/M08 A2979 RMK AO2 PK WND
                 31031/2345 SLP098 T10331078 10000 21033 51021 TSNO =
2017-11-17 17:53 METAR KMLT 172253Z AUTO 31013G23KT 280V340 10SM FEW043 M03/M08 A2977 RMK AO2 PK
                 WND 30029/2213 SLP091 T10281078 TSNO =
2017-11-17 16:53 METAR KMLT 172153Z AUTO 29016G25KT 10SM SCT027 OVC038 M02/M07 A2977 RMK AO2 PK
                 WND 30031/2114 SLP089 T10221072 TSNO =
2017-11-17 15:53 METAR KMLT 172053Z AUTO 28015G29KT 10SM CLR M02/M07 A2973 RMK AO2 PK WND
                 31036/1954 SLP076 T10221067 53023 TSNO =
2017-11-17 15:26 METAR KMLT 172026Z AUTO 29019G33KT 10SM SCT022 M02/M06 A2971 RMK AO2 PK WND
                 31036/1954 T10171061 TSNO =
2017-11-17 14:53 METAR KMLT 171953Z AUTO 30017G29KT 10SM OVC023 M02/M06 A2970 RMK AO2 PK WND
                 31029/1953 SLP068 T10171056 TSNO =
2017-11-17 13:53 METAR KMLT 171853Z AUTO 28013G30KT 10SM OVC021 00/M04 A2968 RMK AO2 PK WND
                 29030/1851 SLP058 T00001039 TSNO =
2017-11-17 12:53 METAR KMLT 171753Z AUTO 29013G24KT 10SM OVC018 00/M03 A2966 RMK AO2 PK WND
                 29030/1702 SLP052 60000 T00001028 10039 20000 53015 TSNO =
2017-11-17 11:53 METAR KMLT 171653Z AUTO 29013G25KT 10SM BKN019 OVC038 02/M01 A2963 RMK AO2 PK
                 WND 31028/1633 RAB16E34UPB24E33 SLP042 P0000 T00171011 TSNO =
2017-11-17 10:53 METAR KMLT 171553Z AUTO 30016G26KT 10SM FEW017 BKN024 BKN036 03/01 A2962 RMK AO2
                 PK WND 31036/1517 SLP037 T00280006 TSNO =
2017-11-17 09:53 METAR KMLT 171453Z AUTO 31018G29KT 10SM SCT033 SCT041 04/00 A2962 RMK AO2 PK WND
                 30029/1446 SLP037 60000 T00390000 51021 TSNO =
2017-11-17 08:53 METAR KMLT 171353Z AUTO 31015G26KT 10SM FEW025 BKN055 OVC100 03/01 A2960 RMK AO2
                 PK WND 31026/1351 SLP031 T00330011 TSNO =
2017-11-17 07:53 METAR KMLT 171253Z AUTO 32013G19KT 10SM SCT026 BKN034 OVC100 03/01 A2958 RMK AO2
                 RAE00 SLP024 P0000 T00330011 TSNO =
2017-11-17 06:53 METAR KMLT 171153Z AUTO 31011KT 10SM -RA SCT027 OVC033 03/02 A2955 RMK AO2
                 UPE1059B47E49RAB1059 SLP016 P0000 60001 70028 T00330017 10033 20011 53015 TSNO =
2017-11-17 06:33 METAR KMLT 171133Z AUTO 30010KT 10SM -RA BKN029 OVC034 03/02 A2955 RMK AO2
                 UPE1059RAB1059 P0000 T00280017 TSNO =
2017-11-17 05:53 METAR KMLT 171053Z AUTO 30009KT 10SM UP SCT033 SCT055 OVC070 03/02 A2953 RMK AO2
                 UPB52 SLP008 P0000 T00280017 TSNO =
2017-11-17 04:53 METAR KMLT 170953Z AUTO 31009KT 10SM FEW055 OVC080 03/02 A2951 RMK AO2
                 RAE0855UPB0855E09 SLP003 P0000 T00280022 TSNO =
2017-11-17 03:53 METAR KMLT 170853Z AUTO 30007KT 10SM -RA FEW020 SCT028 OVC041 03/02 A2951 RMK
                 AO2 SLP001 P0000 60001 T00280022 58008 TSNO =
2017-11-17 02:53 METAR KMLT 170753Z AUTO 30003KT 10SM -RA OVC046 02/02 A2952 RMK AO2 UPB38E43
                 SLP003 P0001 T00170017 TSNO =
2017-11-17 02:34 METAR KMLT 170734Z AUTO 34003KT 10SM -RA FEW019 SCT035 OVC044 02/02 A2952 RMK
                 AO2 P0001 T00170017 TSNO =
2017-11-17 01:53 METAR KMLT 170653Z AUTO 00000KT 10SM -RA BKN019 OVC034 02/02 A2953 RMK AO2
                 RAE0555B19UPB0555E19B35E45 SLP008 P0000 T00170017 TSNO =

Support USWX by starting your Amazon purchase here.